sensor_id;sensor_type;location;lat;lon;timestamp;P1;durP1;ratioP1;P2;durP2;ratioP2
76021;SDS011;64718;52.124;6.226;2022-11-04T00:01:20;6.00;;;2.95;;
76021;SDS011;64718;52.124;6.226;2022-11-04T00:03:47;4.90;;;3.28;;
76021;SDS011;64718;52.124;6.226;2022-11-04T00:06:14;5.95;;;3.60;;
76021;SDS011;64718;52.124;6.226;2022-11-04T00:08:42;8.52;;;4.05;;
76021;SDS011;64718;52.124;6.226;2022-11-04T00:11:08;6.82;;;4.22;;
76021;SDS011;64718;52.124;6.226;2022-11-04T00:13:53;9.07;;;4.80;;
76021;SDS011;64718;52.124;6.226;2022-11-04T00:16:20;10.02;;;5.10;;
76021;SDS011;64718;52.124;6.226;2022-11-04T00:19:04;10.23;;;5.03;;
76021;SDS011;64718;52.124;6.226;2022-11-04T00:21:30;8.93;;;5.10;;
76021;SDS011;64718;52.124;6.226;2022-11-04T00:24:16;9.70;;;5.22;;
76021;SDS011;64718;52.124;6.226;2022-11-04T00:27:08;9.80;;;5.43;;
76021;SDS011;64718;52.124;6.226;2022-11-04T00:29:53;9.98;;;4.90;;
76021;SDS011;64718;52.124;6.226;2022-11-04T00:32:19;8.88;;;4.93;;
76021;SDS011;64718;52.124;6.226;2022-11-04T00:35:04;10.55;;;5.22;;
76021;SDS011;64718;52.124;6.226;2022-11-04T00:37:31;10.27;;;4.72;;
76021;SDS011;64718;52.124;6.226;2022-11-04T00:39:58;10.65;;;4.95;;
76021;SDS011;64718;52.124;6.226;2022-11-04T00:42:25;7.47;;;4.80;;
76021;SDS011;64718;52.124;6.226;2022-11-04T00:44:51;11.30;;;5.43;;
76021;SDS011;64718;52.124;6.226;2022-11-04T00:49:47;7.57;;;4.80;;
76021;SDS011;64718;52.124;6.226;2022-11-04T00:52:14;10.60;;;5.95;;
76021;SDS011;64718;52.124;6.226;2022-11-04T00:54:40;12.30;;;6.45;;
76021;SDS011;64718;52.124;6.226;2022-11-04T00:57:09;13.13;;;6.82;;
76021;SDS011;64718;52.124;6.226;2022-11-04T00:59:35;11.13;;;7.03;;
76021;SDS011;64718;52.124;6.226;2022-11-04T01:02:02;14.75;;;7.50;;
76021;SDS011;64718;52.124;6.226;2022-11-04T01:04:28;14.75;;;7.95;;
76021;SDS011;64718;52.124;6.226;2022-11-04T01:06:55;15.32;;;8.20;;
76021;SDS011;64718;52.124;6.226;2022-11-04T01:09:22;18.00;;;7.65;;
76021;SDS011;64718;52.124;6.226;2022-11-04T01:11:48;15.15;;;8.75;;
76021;SDS011;64718;52.124;6.226;2022-11-04T01:14:16;19.63;;;9.98;;
76021;SDS011;64718;52.124;6.226;2022-11-04T01:16:43;24.58;;;11.52;;
76021;SDS011;64718;52.124;6.226;2022-11-04T01:19:10;21.42;;;11.77;;
76021;SDS011;64718;52.124;6.226;2022-11-04T01:21:37;24.10;;;11.10;;
76021;SDS011;64718;52.124;6.226;2022-11-04T01:24:04;22.48;;;11.23;;
76021;SDS011;64718;52.124;6.226;2022-11-04T01:26:31;16.48;;;8.90;;
76021;SDS011;64718;52.124;6.226;2022-11-04T01:28:57;14.35;;;8.80;;
76021;SDS011;64718;52.124;6.226;2022-11-04T01:31:26;12.02;;;6.43;;
76021;SDS011;64718;52.124;6.226;2022-11-04T01:33:55;12.05;;;7.35;;
76021;SDS011;64718;52.124;6.226;2022-11-04T01:36:23;11.68;;;7.05;;
76021;SDS011;64718;52.124;6.226;2022-11-04T01:38:52;11.27;;;6.35;;
76021;SDS011;64718;52.124;6.226;2022-11-04T01:41:21;10.60;;;6.30;;
76021;SDS011;64718;52.124;6.226;2022-11-04T01:43:50;11.57;;;5.63;;
76021;SDS011;64718;52.124;6.226;2022-11-04T01:48:52;8.43;;;4.10;;
76021;SDS011;64718;52.124;6.226;2022-11-04T01:51:23;7.97;;;4.30;;
76021;SDS011;64718;52.124;6.226;2022-11-04T01:53:51;7.63;;;3.75;;
76021;SDS011;64718;52.124;6.226;2022-11-04T01:56:21;5.57;;;3.42;;
76021;SDS011;64718;52.124;6.226;2022-11-04T01:58:50;4.95;;;3.10;;
76021;SDS011;64718;52.124;6.226;2022-11-04T02:01:20;4.45;;;2.47;;
76021;SDS011;64718;52.124;6.226;2022-11-04T02:03:48;5.45;;;2.60;;
76021;SDS011;64718;52.124;6.226;2022-11-04T02:06:19;3.53;;;1.90;;
76021;SDS011;64718;52.124;6.226;2022-11-04T02:08:47;3.47;;;1.77;;
76021;SDS011;64718;52.124;6.226;2022-11-04T02:11:14;4.00;;;1.80;;
76021;SDS011;64718;52.124;6.226;2022-11-04T02:13:55;2.72;;;1.67;;
76021;SDS011;64718;52.124;6.226;2022-11-04T02:16:22;2.45;;;1.40;;
76021;SDS011;64718;52.124;6.226;2022-11-04T02:19:01;3.40;;;2.05;;
76021;SDS011;64718;52.124;6.226;2022-11-04T02:21:52;4.35;;;3.22;;
76021;SDS011;64718;52.124;6.226;2022-11-04T02:24:42;5.68;;;3.78;;
76021;SDS011;64718;52.124;6.226;2022-11-04T02:27:32;10.05;;;4.00;;
76021;SDS011;64718;52.124;6.226;2022-11-04T02:30:07;7.20;;;3.67;;
76021;SDS011;64718;52.124;6.226;2022-11-04T02:32:48;11.02;;;5.30;;
76021;SDS011;64718;52.124;6.226;2022-11-04T02:35:26;10.40;;;5.88;;
76021;SDS011;64718;52.124;6.226;2022-11-04T02:38:04;12.23;;;6.35;;
76021;SDS011;64718;52.124;6.226;2022-11-04T02:40:39;15.93;;;7.15;;
76021;SDS011;64718;52.124;6.226;2022-11-04T02:43:11;14.50;;;7.65;;
76021;SDS011;64718;52.124;6.226;2022-11-04T02:45:48;22.23;;;9.95;;
76021;SDS011;64718;52.124;6.226;2022-11-04T02:48:18;22.77;;;11.02;;
76021;SDS011;64718;52.124;6.226;2022-11-04T02:50:50;22.33;;;11.68;;
76021;SDS011;64718;52.124;6.226;2022-11-04T02:53:20;22.90;;;11.30;;
76021;SDS011;64718;52.124;6.226;2022-11-04T02:55:53;22.52;;;11.38;;
76021;SDS011;64718;52.124;6.226;2022-11-04T02:58:23;21.65;;;11.35;;
76021;SDS011;64718;52.124;6.226;2022-11-04T03:00:55;23.80;;;11.50;;
76021;SDS011;64718;52.124;6.226;2022-11-04T03:03:23;23.88;;;12.40;;
76021;SDS011;64718;52.124;6.226;2022-11-04T03:05:53;29.70;;;14.38;;
76021;SDS011;64718;52.124;6.226;2022-11-04T03:08:23;26.38;;;13.68;;
76021;SDS011;64718;52.124;6.226;2022-11-04T03:10:53;31.20;;;14.60;;
76021;SDS011;64718;52.124;6.226;2022-11-04T03:13:24;34.67;;;15.27;;
76021;SDS011;64718;52.124;6.226;2022-11-04T03:16:00;32.05;;;15.25;;
76021;SDS011;64718;52.124;6.226;2022-11-04T03:18:35;34.70;;;16.02;;
76021;SDS011;64718;52.124;6.226;2022-11-04T03:21:08;36.65;;;17.25;;
76021;SDS011;64718;52.124;6.226;2022-11-04T03:23:38;34.15;;;16.15;;
76021;SDS011;64718;52.124;6.226;2022-11-04T03:26:07;40.30;;;16.45;;
76021;SDS011;64718;52.124;6.226;2022-11-04T03:28:40;39.90;;;17.90;;
76021;SDS011;64718;52.124;6.226;2022-11-04T03:31:15;34.05;;;16.85;;
76021;SDS011;64718;52.124;6.226;2022-11-04T03:33:48;34.60;;;15.07;;
76021;SDS011;64718;52.124;6.226;2022-11-04T03:38:43;30.35;;;14.68;;
76021;SDS011;64718;52.124;6.226;2022-11-04T03:41:12;36.42;;;16.20;;
76021;SDS011;64718;52.124;6.226;2022-11-04T03:43:43;32.47;;;15.82;;
76021;SDS011;64718;52.124;6.226;2022-11-04T03:46:10;34.13;;;15.75;;
76021;SDS011;64718;52.124;6.226;2022-11-04T03:48:38;33.58;;;16.15;;
76021;SDS011;64718;52.124;6.226;2022-11-04T03:53:33;32.70;;;16.05;;
76021;SDS011;64718;52.124;6.226;2022-11-04T03:56:05;37.97;;;16.23;;
76021;SDS011;64718;52.124;6.226;2022-11-04T03:58:48;35.60;;;17.73;;
76021;SDS011;64718;52.124;6.226;2022-11-04T04:01:30;34.53;;;17.55;;
76021;SDS011;64718;52.124;6.226;2022-11-04T04:04:07;36.42;;;15.75;;
76021;SDS011;64718;52.124;6.226;2022-11-04T04:06:39;38.63;;;19.23;;
76021;SDS011;64718;52.124;6.226;2022-11-04T04:09:11;37.17;;;16.20;;
76021;SDS011;64718;52.124;6.226;2022-11-04T04:11:44;41.03;;;19.13;;
76021;SDS011;64718;52.124;6.226;2022-11-04T04:14:17;38.92;;;17.35;;
76021;SDS011;64718;52.124;6.226;2022-11-04T04:17:03;37.10;;;16.98;;
76021;SDS011;64718;52.124;6.226;2022-11-04T04:19:35;39.70;;;18.45;;
76021;SDS011;64718;52.124;6.226;2022-11-04T04:22:03;42.60;;;20.58;;
76021;SDS011;64718;52.124;6.226;2022-11-04T04:24:35;46.17;;;19.33;;
76021;SDS011;64718;52.124;6.226;2022-11-04T04:27:24;49.83;;;21.30;;
76021;SDS011;64718;52.124;6.226;2022-11-04T04:29:57;49.65;;;22.48;;
76021;SDS011;64718;52.124;6.226;2022-11-04T04:32:25;50.55;;;21.42;;
76021;SDS011;64718;52.124;6.226;2022-11-04T04:34:56;54.13;;;22.02;;
76021;SDS011;64718;52.124;6.226;2022-11-04T04:37:36;54.10;;;21.45;;
76021;SDS011;64718;52.124;6.226;2022-11-04T04:40:05;48.05;;;21.65;;
76021;SDS011;64718;52.124;6.226;2022-11-04T04:42:52;49.88;;;21.08;;
76021;SDS011;64718;52.124;6.226;2022-11-04T04:45:37;46.05;;;20.40;;
76021;SDS011;64718;52.124;6.226;2022-11-04T04:48:07;45.50;;;20.83;;
76021;SDS011;64718;52.124;6.226;2022-11-04T04:50:38;43.20;;;19.48;;
76021;SDS011;64718;52.124;6.226;2022-11-04T04:53:08;45.03;;;21.40;;
76021;SDS011;64718;52.124;6.226;2022-11-04T04:55:36;41.58;;;19.38;;
76021;SDS011;64718;52.124;6.226;2022-11-04T04:58:02;43.60;;;21.05;;
76021;SDS011;64718;52.124;6.226;2022-11-04T05:00:29;42.97;;;19.05;;
76021;SDS011;64718;52.124;6.226;2022-11-04T05:02:56;44.15;;;19.33;;
76021;SDS011;64718;52.124;6.226;2022-11-04T05:05:23;52.28;;;23.88;;
76021;SDS011;64718;52.124;6.226;2022-11-04T05:07:51;50.35;;;21.27;;
76021;SDS011;64718;52.124;6.226;2022-11-04T05:10:17;43.30;;;19.05;;
76021;SDS011;64718;52.124;6.226;2022-11-04T05:12:45;45.33;;;20.30;;
76021;SDS011;64718;52.124;6.226;2022-11-04T05:15:29;42.17;;;18.23;;
76021;SDS011;64718;52.124;6.226;2022-11-04T05:17:57;40.78;;;18.80;;
76021;SDS011;64718;52.124;6.226;2022-11-04T05:20:26;43.83;;;20.58;;
76021;SDS011;64718;52.124;6.226;2022-11-04T05:22:55;44.20;;;18.65;;
76021;SDS011;64718;52.124;6.226;2022-11-04T05:25:22;41.00;;;17.75;;
76021;SDS011;64718;52.124;6.226;2022-11-04T05:27:48;37.65;;;17.30;;
76021;SDS011;64718;52.124;6.226;2022-11-04T05:30:15;36.13;;;17.30;;
76021;SDS011;64718;52.124;6.226;2022-11-04T05:32:42;34.90;;;16.98;;
76021;SDS011;64718;52.124;6.226;2022-11-04T05:35:08;36.05;;;17.50;;
76021;SDS011;64718;52.124;6.226;2022-11-04T05:37:35;38.95;;;17.55;;
76021;SDS011;64718;52.124;6.226;2022-11-04T05:40:03;36.22;;;16.52;;
76021;SDS011;64718;52.124;6.226;2022-11-04T05:42:30;33.70;;;15.85;;
76021;SDS011;64718;52.124;6.226;2022-11-04T05:44:57;38.08;;;18.20;;
76021;SDS011;64718;52.124;6.226;2022-11-04T05:47:23;33.17;;;17.05;;
76021;SDS011;64718;52.124;6.226;2022-11-04T05:49:50;34.70;;;16.00;;
76021;SDS011;64718;52.124;6.226;2022-11-04T05:52:16;33.85;;;15.20;;
76021;SDS011;64718;52.124;6.226;2022-11-04T05:54:43;33.33;;;14.43;;
76021;SDS011;64718;52.124;6.226;2022-11-04T05:57:11;33.58;;;13.93;;
76021;SDS011;64718;52.124;6.226;2022-11-04T05:59:37;31.33;;;13.18;;
76021;SDS011;64718;52.124;6.226;2022-11-04T06:02:04;29.15;;;13.65;;
76021;SDS011;64718;52.124;6.226;2022-11-04T06:04:31;27.27;;;12.40;;
76021;SDS011;64718;52.124;6.226;2022-11-04T06:06:58;22.48;;;10.98;;
76021;SDS011;64718;52.124;6.226;2022-11-04T06:09:24;21.10;;;9.93;;
76021;SDS011;64718;52.124;6.226;2022-11-04T06:12:04;22.13;;;9.60;;
76021;SDS011;64718;52.124;6.226;2022-11-04T06:14:33;20.73;;;9.57;;
76021;SDS011;64718;52.124;6.226;2022-11-04T06:16:59;22.83;;;8.10;;
76021;SDS011;64718;52.124;6.226;2022-11-04T06:19:26;15.85;;;8.20;;
76021;SDS011;64718;52.124;6.226;2022-11-04T06:21:53;17.13;;;8.77;;
76021;SDS011;64718;52.124;6.226;2022-11-04T06:24:19;14.90;;;6.93;;
76021;SDS011;64718;52.124;6.226;2022-11-04T06:26:46;14.60;;;7.63;;
76021;SDS011;64718;52.124;6.226;2022-11-04T06:29:12;14.48;;;6.38;;
76021;SDS011;64718;52.124;6.226;2022-11-04T06:31:40;12.25;;;6.72;;
76021;SDS011;64718;52.124;6.226;2022-11-04T06:34:07;20.75;;;10.48;;
76021;SDS011;64718;52.124;6.226;2022-11-04T06:36:33;14.05;;;7.18;;
76021;SDS011;64718;52.124;6.226;2022-11-04T06:39:00;16.48;;;7.10;;
76021;SDS011;64718;52.124;6.226;2022-11-04T06:41:26;13.20;;;6.72;;
76021;SDS011;64718;52.124;6.226;2022-11-04T06:43:53;16.33;;;7.13;;
76021;SDS011;64718;52.124;6.226;2022-11-04T06:46:23;13.60;;;6.43;;
76021;SDS011;64718;52.124;6.226;2022-11-04T06:48:53;12.68;;;6.28;;
76021;SDS011;64718;52.124;6.226;2022-11-04T06:51:20;16.20;;;7.40;;
76021;SDS011;64718;52.124;6.226;2022-11-04T06:53:47;17.00;;;7.55;;
76021;SDS011;64718;52.124;6.226;2022-11-04T06:56:14;14.57;;;7.05;;
76021;SDS011;64718;52.124;6.226;2022-11-04T06:58:40;16.10;;;7.15;;
76021;SDS011;64718;52.124;6.226;2022-11-04T07:01:07;19.90;;;7.88;;
76021;SDS011;64718;52.124;6.226;2022-11-04T07:03:33;17.50;;;7.63;;
76021;SDS011;64718;52.124;6.226;2022-11-04T07:06:05;15.93;;;6.60;;
76021;SDS011;64718;52.124;6.226;2022-11-04T07:08:32;18.33;;;7.65;;
76021;SDS011;64718;52.124;6.226;2022-11-04T07:10:59;18.08;;;7.10;;
76021;SDS011;64718;52.124;6.226;2022-11-04T07:13:26;21.27;;;7.55;;
76021;SDS011;64718;52.124;6.226;2022-11-04T07:15:52;15.00;;;6.38;;
76021;SDS011;64718;52.124;6.226;2022-11-04T07:18:19;20.15;;;8.10;;
76021;SDS011;64718;52.124;6.226;2022-11-04T07:20:45;23.02;;;8.07;;
76021;SDS011;64718;52.124;6.226;2022-11-04T07:23:13;22.00;;;7.90;;
76021;SDS011;64718;52.124;6.226;2022-11-04T07:25:40;13.90;;;7.03;;
76021;SDS011;64718;52.124;6.226;2022-11-04T07:28:07;12.15;;;5.82;;
76021;SDS011;64718;52.124;6.226;2022-11-04T07:30:33;16.75;;;6.95;;
76021;SDS011;64718;52.124;6.226;2022-11-04T07:33:00;17.25;;;6.40;;
76021;SDS011;64718;52.124;6.226;2022-11-04T07:35:26;15.05;;;7.28;;
76021;SDS011;64718;52.124;6.226;2022-11-04T07:37:53;16.10;;;7.28;;
76021;SDS011;64718;52.124;6.226;2022-11-04T07:40:21;15.82;;;6.22;;
76021;SDS011;64718;52.124;6.226;2022-11-04T07:42:48;12.18;;;6.00;;
76021;SDS011;64718;52.124;6.226;2022-11-04T07:45:14;10.23;;;5.78;;
76021;SDS011;64718;52.124;6.226;2022-11-04T07:47:41;10.32;;;4.97;;
76021;SDS011;64718;52.124;6.226;2022-11-04T07:50:08;11.82;;;4.07;;
76021;SDS011;64718;52.124;6.226;2022-11-04T07:52:35;7.97;;;4.70;;
76021;SDS011;64718;52.124;6.226;2022-11-04T07:55:01;9.13;;;4.50;;
76021;SDS011;64718;52.124;6.226;2022-11-04T07:57:29;8.98;;;4.95;;
76021;SDS011;64718;52.124;6.226;2022-11-04T07:59:56;8.50;;;3.97;;
76021;SDS011;64718;52.124;6.226;2022-11-04T08:02:23;7.30;;;4.40;;
76021;SDS011;64718;52.124;6.226;2022-11-04T08:04:50;9.65;;;4.03;;
76021;SDS011;64718;52.124;6.226;2022-11-04T08:07:16;10.43;;;4.63;;
76021;SDS011;64718;52.124;6.226;2022-11-04T08:09:43;9.25;;;4.70;;
76021;SDS011;64718;52.124;6.226;2022-11-04T08:12:09;8.10;;;4.45;;
76021;SDS011;64718;52.124;6.226;2022-11-04T08:14:37;8.63;;;4.35;;
76021;SDS011;64718;52.124;6.226;2022-11-04T08:17:04;7.90;;;4.22;;
76021;SDS011;64718;52.124;6.226;2022-11-04T08:19:30;9.18;;;4.60;;
76021;SDS011;64718;52.124;6.226;2022-11-04T08:21:57;7.75;;;4.32;;
76021;SDS011;64718;52.124;6.226;2022-11-04T08:24:23;7.32;;;3.72;;
76021;SDS011;64718;52.124;6.226;2022-11-04T08:26:50;10.57;;;3.92;;
76021;SDS011;64718;52.124;6.226;2022-11-04T08:29:16;12.93;;;5.43;;
76021;SDS011;64718;52.124;6.226;2022-11-04T08:31:44;19.20;;;7.68;;
76021;SDS011;64718;52.124;6.226;2022-11-04T08:34:11;21.27;;;9.05;;
76021;SDS011;64718;52.124;6.226;2022-11-04T08:36:38;20.02;;;8.73;;
76021;SDS011;64718;52.124;6.226;2022-11-04T08:39:07;15.15;;;7.95;;
76021;SDS011;64718;52.124;6.226;2022-11-04T08:41:34;14.40;;;7.00;;
76021;SDS011;64718;52.124;6.226;2022-11-04T08:44:03;12.13;;;5.75;;
76021;SDS011;64718;52.124;6.226;2022-11-04T08:46:31;14.95;;;6.72;;
76021;SDS011;64718;52.124;6.226;2022-11-04T08:49:00;11.48;;;5.00;;
76021;SDS011;64718;52.124;6.226;2022-11-04T08:51:27;11.48;;;5.78;;
76021;SDS011;64718;52.124;6.226;2022-11-04T08:53:54;10.35;;;4.97;;
76021;SDS011;64718;52.124;6.226;2022-11-04T08:56:22;12.10;;;4.60;;
76021;SDS011;64718;52.124;6.226;2022-11-04T08:58:50;9.65;;;4.80;;
76021;SDS011;64718;52.124;6.226;2022-11-04T09:01:17;8.43;;;4.10;;
76021;SDS011;64718;52.124;6.226;2022-11-04T09:03:45;8.70;;;4.55;;
76021;SDS011;64718;52.124;6.226;2022-11-04T09:06:14;9.15;;;4.18;;
76021;SDS011;64718;52.124;6.226;2022-11-04T09:08:43;7.63;;;4.45;;
76021;SDS011;64718;52.124;6.226;2022-11-04T09:11:11;7.53;;;4.22;;
76021;SDS011;64718;52.124;6.226;2022-11-04T09:13:39;10.65;;;4.57;;
76021;SDS011;64718;52.124;6.226;2022-11-04T09:16:06;10.73;;;4.40;;
76021;SDS011;64718;52.124;6.226;2022-11-04T09:18:34;9.25;;;4.30;;
76021;SDS011;64718;52.124;6.226;2022-11-04T09:21:01;20.00;;;5.43;;
76021;SDS011;64718;52.124;6.226;2022-11-04T09:23:31;8.55;;;4.85;;
76021;SDS011;64718;52.124;6.226;2022-11-04T09:26:02;9.40;;;4.18;;
76021;SDS011;64718;52.124;6.226;2022-11-04T09:28:29;7.38;;;4.57;;
76021;SDS011;64718;52.124;6.226;2022-11-04T09:30:56;9.18;;;4.13;;
76021;SDS011;64718;52.124;6.226;2022-11-04T09:33:22;6.20;;;3.95;;
76021;SDS011;64718;52.124;6.226;2022-11-04T09:35:53;11.38;;;4.72;;
76021;SDS011;64718;52.124;6.226;2022-11-04T09:38:20;11.57;;;4.85;;
76021;SDS011;64718;52.124;6.226;2022-11-04T09:40:48;10.43;;;4.45;;
76021;SDS011;64718;52.124;6.226;2022-11-04T09:43:19;11.80;;;4.82;;
76021;SDS011;64718;52.124;6.226;2022-11-04T09:45:55;10.18;;;4.88;;
76021;SDS011;64718;52.124;6.226;2022-11-04T09:50:52;8.55;;;5.00;;
76021;SDS011;64718;52.124;6.226;2022-11-04T09:53:22;11.32;;;4.65;;
76021;SDS011;64718;52.124;6.226;2022-11-04T09:55:55;16.27;;;5.97;;
76021;SDS011;64718;52.124;6.226;2022-11-04T09:58:25;12.20;;;5.53;;
76021;SDS011;64718;52.124;6.226;2022-11-04T10:00:56;10.00;;;5.70;;
76021;SDS011;64718;52.124;6.226;2022-11-04T10:03:36;13.43;;;6.38;;
76021;SDS011;64718;52.124;6.226;2022-11-04T10:06:18;10.35;;;5.25;;
76021;SDS011;64718;52.124;6.226;2022-11-04T10:08:59;11.02;;;6.13;;
76021;SDS011;64718;52.124;6.226;2022-11-04T10:11:39;10.38;;;5.68;;
76021;SDS011;64718;52.124;6.226;2022-11-04T10:14:21;9.07;;;5.32;;
76021;SDS011;64718;52.124;6.226;2022-11-04T10:17:06;11.00;;;5.53;;
76021;SDS011;64718;52.124;6.226;2022-11-04T10:19:50;17.00;;;6.03;;
76021;SDS011;64718;52.124;6.226;2022-11-04T10:22:27;10.90;;;5.40;;
76021;SDS011;64718;52.124;6.226;2022-11-04T10:25:00;10.15;;;5.35;;
76021;SDS011;64718;52.124;6.226;2022-11-04T10:27:35;13.93;;;5.45;;
76021;SDS011;64718;52.124;6.226;2022-11-04T10:30:05;12.18;;;4.82;;
76021;SDS011;64718;52.124;6.226;2022-11-04T10:32:36;9.52;;;5.22;;
76021;SDS011;64718;52.124;6.226;2022-11-04T10:35:14;10.13;;;5.70;;
76021;SDS011;64718;52.124;6.226;2022-11-04T10:37:47;8.95;;;5.70;;
76021;SDS011;64718;52.124;6.226;2022-11-04T10:40:19;10.00;;;6.28;;
76021;SDS011;64718;52.124;6.226;2022-11-04T10:42:51;9.55;;;5.78;;
76021;SDS011;64718;52.124;6.226;2022-11-04T10:45:18;10.70;;;6.00;;
76021;SDS011;64718;52.124;6.226;2022-11-04T10:47:49;12.32;;;5.90;;
76021;SDS011;64718;52.124;6.226;2022-11-04T10:50:23;12.45;;;6.00;;
76021;SDS011;64718;52.124;6.226;2022-11-04T10:53:00;12.27;;;6.47;;
76021;SDS011;64718;52.124;6.226;2022-11-04T10:55:34;12.57;;;6.68;;
76021;SDS011;64718;52.124;6.226;2022-11-04T10:58:10;16.02;;;8.38;;
76021;SDS011;64718;52.124;6.226;2022-11-04T11:00:43;12.68;;;7.05;;
76021;SDS011;64718;52.124;6.226;2022-11-04T11:03:28;10.05;;;6.88;;
76021;SDS011;64718;52.124;6.226;2022-11-04T11:06:10;12.77;;;6.53;;
76021;SDS011;64718;52.124;6.226;2022-11-04T11:08:40;10.27;;;6.30;;
76021;SDS011;64718;52.124;6.226;2022-11-04T11:11:09;12.95;;;6.85;;
76021;SDS011;64718;52.124;6.226;2022-11-04T11:13:38;13.18;;;6.88;;
76021;SDS011;64718;52.124;6.226;2022-11-04T11:16:08;14.93;;;6.88;;
76021;SDS011;64718;52.124;6.226;2022-11-04T11:18:37;11.35;;;6.78;;
76021;SDS011;64718;52.124;6.226;2022-11-04T11:21:05;13.52;;;7.05;;
76021;SDS011;64718;52.124;6.226;2022-11-04T11:23:35;11.25;;;7.50;;
76021;SDS011;64718;52.124;6.226;2022-11-04T11:26:07;13.63;;;7.20;;
76021;SDS011;64718;52.124;6.226;2022-11-04T11:28:35;13.77;;;7.80;;
76021;SDS011;64718;52.124;6.226;2022-11-04T11:31:07;14.90;;;8.43;;
76021;SDS011;64718;52.124;6.226;2022-11-04T11:33:44;12.45;;;7.53;;
76021;SDS011;64718;52.124;6.226;2022-11-04T11:36:15;11.05;;;7.72;;
76021;SDS011;64718;52.124;6.226;2022-11-04T11:38:52;15.02;;;8.32;;
76021;SDS011;64718;52.124;6.226;2022-11-04T11:41:22;12.77;;;8.13;;
76021;SDS011;64718;52.124;6.226;2022-11-04T11:43:55;14.40;;;8.75;;
76021;SDS011;64718;52.124;6.226;2022-11-04T11:46:27;17.27;;;8.35;;
76021;SDS011;64718;52.124;6.226;2022-11-04T11:48:56;13.15;;;8.57;;
76021;SDS011;64718;52.124;6.226;2022-11-04T11:51:25;17.80;;;9.50;;
76021;SDS011;64718;52.124;6.226;2022-11-04T11:54:00;14.85;;;7.70;;
76021;SDS011;64718;52.124;6.226;2022-11-04T11:56:38;15.23;;;7.88;;
76021;SDS011;64718;52.124;6.226;2022-11-04T11:59:12;14.23;;;8.15;;
76021;SDS011;64718;52.124;6.226;2022-11-04T12:01:47;16.98;;;9.65;;
76021;SDS011;64718;52.124;6.226;2022-11-04T12:04:17;14.63;;;8.50;;
76021;SDS011;64718;52.124;6.226;2022-11-04T12:06:47;12.75;;;8.75;;
76021;SDS011;64718;52.124;6.226;2022-11-04T12:09:27;14.52;;;10.07;;
76021;SDS011;64718;52.124;6.226;2022-11-04T12:12:08;13.88;;;9.02;;
76021;SDS011;64718;52.124;6.226;2022-11-04T12:14:50;14.15;;;8.02;;
76021;SDS011;64718;52.124;6.226;2022-11-04T12:17:31;16.00;;;9.00;;
76021;SDS011;64718;52.124;6.226;2022-11-04T12:20:18;19.90;;;8.70;;
76021;SDS011;64718;52.124;6.226;2022-11-04T12:22:53;13.15;;;8.25;;
76021;SDS011;64718;52.124;6.226;2022-11-04T12:25:27;14.90;;;7.40;;
76021;SDS011;64718;52.124;6.226;2022-11-04T12:28:02;14.25;;;9.23;;
76021;SDS011;64718;52.124;6.226;2022-11-04T12:30:39;13.95;;;9.00;;
76021;SDS011;64718;52.124;6.226;2022-11-04T12:33:24;13.07;;;8.02;;
76021;SDS011;64718;52.124;6.226;2022-11-04T12:36:07;18.70;;;10.10;;
76021;SDS011;64718;52.124;6.226;2022-11-04T12:38:55;13.65;;;8.75;;
76021;SDS011;64718;52.124;6.226;2022-11-04T12:41:40;15.43;;;9.48;;
76021;SDS011;64718;52.124;6.226;2022-11-04T12:44:17;13.43;;;8.98;;
76021;SDS011;64718;52.124;6.226;2022-11-04T12:46:53;13.07;;;9.35;;
76021;SDS011;64718;52.124;6.226;2022-11-04T12:52:33;18.85;;;9.15;;
76021;SDS011;64718;52.124;6.226;2022-11-04T12:55:16;14.25;;;8.95;;
76021;SDS011;64718;52.124;6.226;2022-11-04T12:57:54;14.38;;;9.40;;
76021;SDS011;64718;52.124;6.226;2022-11-04T13:00:27;13.38;;;8.23;;
76021;SDS011;64718;52.124;6.226;2022-11-04T13:02:55;15.13;;;9.48;;
76021;SDS011;64718;52.124;6.226;2022-11-04T13:05:29;12.60;;;8.98;;
76021;SDS011;64718;52.124;6.226;2022-11-04T13:08:08;13.23;;;9.20;;
76021;SDS011;64718;52.124;6.226;2022-11-04T13:10:41;17.02;;;8.15;;
76021;SDS011;64718;52.124;6.226;2022-11-04T13:13:13;16.13;;;9.90;;
76021;SDS011;64718;52.124;6.226;2022-11-04T13:15:44;19.42;;;10.38;;
76021;SDS011;64718;52.124;6.226;2022-11-04T13:18:14;16.08;;;9.80;;
76021;SDS011;64718;52.124;6.226;2022-11-04T13:20:44;13.45;;;11.15;;
76021;SDS011;64718;52.124;6.226;2022-11-04T13:23:21;15.13;;;8.70;;
76021;SDS011;64718;52.124;6.226;2022-11-04T13:25:52;16.35;;;9.15;;
76021;SDS011;64718;52.124;6.226;2022-11-04T13:28:20;13.52;;;8.82;;
76021;SDS011;64718;52.124;6.226;2022-11-04T13:30:52;17.15;;;9.60;;
76021;SDS011;64718;52.124;6.226;2022-11-04T13:33:25;14.45;;;9.30;;
76021;SDS011;64718;52.124;6.226;2022-11-04T13:35:55;11.52;;;7.10;;
76021;SDS011;64718;52.124;6.226;2022-11-04T13:38:31;13.25;;;8.90;;
76021;SDS011;64718;52.124;6.226;2022-11-04T13:41:06;14.50;;;7.22;;
76021;SDS011;64718;52.124;6.226;2022-11-04T13:44:04;10.75;;;6.88;;
76021;SDS011;64718;52.124;6.226;2022-11-04T13:46:38;17.00;;;7.78;;
76021;SDS011;64718;52.124;6.226;2022-11-04T13:49:05;13.13;;;8.35;;
76021;SDS011;64718;52.124;6.226;2022-11-04T13:51:44;13.75;;;10.07;;
76021;SDS011;64718;52.124;6.226;2022-11-04T13:54:26;16.35;;;8.68;;
76021;SDS011;64718;52.124;6.226;2022-11-04T13:57:03;15.73;;;9.52;;
76021;SDS011;64718;52.124;6.226;2022-11-04T13:59:33;14.77;;;8.77;;
76021;SDS011;64718;52.124;6.226;2022-11-04T14:08:17;15.43;;;8.82;;
76021;SDS011;64718;52.124;6.226;2022-11-04T14:10:56;14.50;;;8.65;;
76021;SDS011;64718;52.124;6.226;2022-11-04T14:13:45;21.23;;;10.55;;
76021;SDS011;64718;52.124;6.226;2022-11-04T14:16:36;17.77;;;9.40;;
76021;SDS011;64718;52.124;6.226;2022-11-04T14:22:20;17.95;;;10.18;;
76021;SDS011;64718;52.124;6.226;2022-11-04T14:24:54;18.08;;;9.55;;
76021;SDS011;64718;52.124;6.226;2022-11-04T14:27:25;15.02;;;9.63;;
76021;SDS011;64718;52.124;6.226;2022-11-04T14:30:02;15.38;;;9.35;;
76021;SDS011;64718;52.124;6.226;2022-11-04T14:32:30;19.13;;;9.15;;
76021;SDS011;64718;52.124;6.226;2022-11-04T14:35:06;19.67;;;9.38;;
76021;SDS011;64718;52.124;6.226;2022-11-04T14:37:42;18.73;;;9.77;;
76021;SDS011;64718;52.124;6.226;2022-11-04T14:40:21;22.40;;;12.23;;
76021;SDS011;64718;52.124;6.226;2022-11-04T14:42:52;17.88;;;10.63;;
76021;SDS011;64718;52.124;6.226;2022-11-04T14:45:21;18.67;;;9.98;;
76021;SDS011;64718;52.124;6.226;2022-11-04T14:47:50;16.85;;;9.52;;
76021;SDS011;64718;52.124;6.226;2022-11-04T14:50:21;15.02;;;9.77;;
76021;SDS011;64718;52.124;6.226;2022-11-04T14:52:51;13.77;;;8.48;;
76021;SDS011;64718;52.124;6.226;2022-11-04T14:55:22;15.73;;;9.18;;
76021;SDS011;64718;52.124;6.226;2022-11-04T14:57:52;17.08;;;8.63;;
76021;SDS011;64718;52.124;6.226;2022-11-04T15:00:25;16.35;;;9.35;;
76021;SDS011;64718;52.124;6.226;2022-11-04T15:05:44;14.70;;;8.45;;
76021;SDS011;64718;52.124;6.226;2022-11-04T15:08:29;13.48;;;7.13;;
76021;SDS011;64718;52.124;6.226;2022-11-04T15:10:59;12.90;;;7.38;;
76021;SDS011;64718;52.124;6.226;2022-11-04T15:13:32;12.65;;;7.80;;
76021;SDS011;64718;52.124;6.226;2022-11-04T15:16:00;14.63;;;7.43;;
76021;SDS011;64718;52.124;6.226;2022-11-04T15:18:32;13.85;;;7.68;;
76021;SDS011;64718;52.124;6.226;2022-11-04T15:21:04;14.15;;;7.25;;
76021;SDS011;64718;52.124;6.226;2022-11-04T15:23:32;14.23;;;7.50;;
76021;SDS011;64718;52.124;6.226;2022-11-04T15:28:27;11.77;;;6.70;;